createdAt,value
2019-01-08T00:00:34.159Z,17.40
2019-01-08T00:03:01.898Z,16.77
2019-01-08T00:05:29.763Z,16.10
2019-01-08T00:07:57.649Z,17.10
2019-01-08T00:10:25.306Z,16.33
2019-01-08T00:12:52.755Z,17.30
2019-01-08T00:15:20.558Z,15.80
2019-01-08T00:17:48.050Z,17.10
2019-01-08T00:20:15.835Z,17.07
2019-01-08T00:22:43.609Z,15.00
2019-01-08T00:25:11.521Z,16.37
2019-01-08T00:27:39.095Z,16.40
2019-01-08T00:30:06.890Z,16.17
2019-01-08T00:32:34.426Z,14.83
2019-01-08T00:35:02.149Z,15.30
2019-01-08T00:37:30.446Z,13.00
2019-01-08T00:39:58.351Z,13.80
2019-01-08T00:42:26.793Z,15.13
2019-01-08T00:44:54.991Z,15.17
2019-01-08T00:47:23.091Z,15.40
2019-01-08T00:49:50.654Z,13.73
2019-01-08T00:52:18.295Z,14.13
2019-01-08T00:54:46.051Z,14.33
2019-01-08T00:57:13.843Z,14.57
2019-01-08T00:59:41.367Z,15.80
2019-01-08T01:02:08.958Z,13.57
2019-01-08T01:04:37.091Z,15.17
2019-01-08T01:07:04.891Z,14.40
2019-01-08T01:09:32.344Z,13.30
2019-01-08T01:11:59.963Z,13.97
2019-01-08T01:14:28.076Z,12.70
2019-01-08T01:16:55.655Z,12.63
2019-01-08T01:19:23.199Z,13.27
2019-01-08T01:21:50.987Z,11.93
2019-01-08T01:24:19.090Z,12.50
2019-01-08T01:26:46.574Z,13.60
2019-01-08T01:29:14.646Z,11.30
2019-01-08T01:31:42.433Z,11.87
2019-01-08T01:34:10.305Z,11.97
2019-01-08T01:36:38.170Z,12.30
2019-01-08T01:39:06.113Z,15.03
2019-01-08T01:41:34.218Z,12.70
2019-01-08T01:44:02.284Z,13.57
2019-01-08T01:46:30.051Z,11.83
2019-01-08T01:48:57.583Z,11.50
2019-01-08T01:51:25.070Z,11.67
2019-01-08T01:53:52.565Z,13.70
2019-01-08T01:56:20.089Z,12.33
2019-01-08T01:58:48.371Z,11.87
2019-01-08T02:01:15.891Z,12.77
2019-01-08T02:03:44.014Z,10.53
2019-01-08T02:06:11.895Z,10.17
2019-01-08T02:08:39.791Z,11.40
2019-01-08T02:11:07.272Z,10.37
2019-01-08T02:13:35.175Z,10.57
2019-01-08T02:16:02.997Z,10.40
2019-01-08T02:18:30.614Z,10.37
2019-01-08T02:20:58.173Z,11.10
2019-01-08T02:23:26.130Z,10.00
2019-01-08T02:25:54.036Z,8.97
2019-01-08T02:28:21.522Z,9.83
2019-01-08T02:30:49.691Z,10.97
2019-01-08T02:33:17.829Z,11.70
2019-01-08T02:35:45.413Z,9.37
2019-01-08T02:38:12.990Z,10.73
2019-01-08T02:40:41.042Z,11.87
2019-01-08T02:43:09.114Z,11.30
2019-01-08T02:45:36.633Z,11.60
2019-01-08T02:48:04.146Z,11.07
2019-01-08T02:50:32.279Z,10.67
2019-01-08T02:53:00.447Z,10.37
2019-01-08T02:55:28.062Z,10.70
2019-01-08T02:57:55.942Z,8.83
2019-01-08T03:00:23.504Z,9.60
2019-01-08T03:02:51.426Z,9.87
2019-01-08T03:05:18.974Z,10.50
2019-01-08T03:07:46.862Z,9.13
2019-01-08T03:10:14.383Z,11.13
2019-01-08T03:12:41.977Z,9.33
2019-01-08T03:15:09.611Z,9.60
2019-01-08T03:17:37.475Z,8.90
2019-01-08T03:20:05.244Z,9.27
2019-01-08T03:22:33.163Z,7.90
2019-01-08T03:25:01.075Z,8.80
2019-01-08T03:27:28.933Z,7.33
2019-01-08T03:29:56.875Z,9.13
2019-01-08T03:32:25.115Z,8.50
2019-01-08T03:34:52.750Z,7.73
2019-01-08T03:37:20.740Z,8.27
2019-01-08T03:39:48.215Z,8.30
2019-01-08T03:42:15.970Z,8.73
2019-01-08T03:44:43.711Z,8.73
2019-01-08T03:47:11.642Z,8.67
2019-01-08T03:49:39.118Z,8.37
2019-01-08T03:52:07.010Z,8.70
2019-01-08T03:54:34.494Z,7.60
2019-01-08T03:57:02.253Z,7.50
2019-01-08T03:59:30.492Z,7.53
2019-01-08T04:01:58.122Z,7.50
2019-01-08T04:04:26.046Z,7.47
2019-01-08T04:06:53.876Z,7.93
2019-01-08T04:09:21.338Z,7.73
2019-01-08T04:11:48.915Z,8.00
2019-01-08T04:14:17.042Z,8.53
2019-01-08T04:16:44.826Z,8.90
2019-01-08T04:19:12.766Z,8.10
2019-01-08T04:21:40.994Z,7.17
2019-01-08T04:24:08.775Z,7.30
2019-01-08T04:26:37.357Z,8.37
2019-01-08T04:29:04.839Z,7.57
2019-01-08T04:31:32.433Z,8.20
2019-01-08T04:34:00.244Z,6.90
2019-01-08T04:36:27.782Z,8.30
2019-01-08T04:38:55.382Z,7.50
2019-01-08T04:41:23.002Z,8.33
2019-01-08T04:43:50.791Z,9.10
2019-01-08T04:46:18.266Z,8.33
2019-01-08T04:48:46.053Z,7.00
2019-01-08T04:51:13.913Z,7.37
2019-01-08T04:53:41.738Z,6.43
2019-01-08T04:56:09.231Z,7.23
2019-01-08T04:58:36.716Z,7.53
2019-01-08T05:01:04.482Z,8.13
2019-01-08T05:03:32.074Z,9.47
2019-01-08T05:05:59.732Z,7.67
2019-01-08T05:08:27.675Z,7.53
2019-01-08T05:10:55.458Z,7.17
2019-01-08T05:13:23.108Z,9.17
2019-01-08T05:15:51.018Z,7.47
2019-01-08T05:18:18.521Z,7.50
2019-01-08T05:20:46.294Z,7.57
2019-01-08T05:23:14.167Z,7.17
2019-01-08T05:25:41.679Z,7.30
2019-01-08T05:28:09.279Z,7.27
2019-01-08T05:30:36.858Z,8.00
2019-01-08T05:33:05.026Z,8.50
2019-01-08T05:35:32.871Z,7.90
2019-01-08T05:38:00.733Z,7.07
2019-01-08T05:40:28.334Z,7.27
2019-01-08T05:42:56.410Z,7.57
2019-01-08T05:45:24.206Z,8.03
2019-01-08T05:47:52.342Z,8.80
2019-01-08T05:50:20.394Z,7.93
2019-01-08T05:52:48.191Z,7.10
2019-01-08T05:55:18.182Z,6.43
2019-01-08T05:57:45.762Z,7.47
2019-01-08T06:00:16.534Z,6.80
2019-01-08T06:02:43.709Z,7.43
2019-01-08T06:05:11.660Z,9.00
2019-01-08T06:07:39.354Z,7.23
2019-01-08T06:10:08.067Z,6.67
2019-01-08T06:12:36.524Z,7.27
2019-01-08T06:15:04.172Z,7.33
2019-01-08T06:17:31.767Z,7.90
2019-01-08T06:19:59.349Z,7.50
2019-01-08T06:22:26.942Z,7.47
2019-01-08T06:24:54.531Z,7.33
2019-01-08T06:27:22.174Z,15.40
2019-01-08T06:29:50.322Z,10.53
2019-01-08T06:32:18.211Z,8.73
2019-01-08T06:34:46.343Z,7.37
2019-01-08T06:37:14.408Z,9.27
2019-01-08T06:39:42.038Z,9.37
2019-01-08T06:42:09.786Z,8.80
2019-01-08T06:44:37.428Z,8.03
2019-01-08T06:47:05.596Z,7.37
2019-01-08T06:49:33.151Z,8.20
2019-01-08T06:52:00.881Z,7.73
2019-01-08T06:54:28.722Z,7.77
2019-01-08T06:56:57.299Z,8.33
2019-01-08T06:59:24.882Z,9.77
2019-01-08T07:01:52.665Z,8.07
2019-01-08T07:04:20.228Z,8.53
2019-01-08T07:06:47.820Z,6.50
2019-01-08T07:09:15.684Z,7.03
2019-01-08T07:11:43.454Z,7.10
2019-01-08T07:14:11.594Z,6.87
2019-01-08T07:16:39.725Z,7.20
2019-01-08T07:19:07.345Z,7.07
2019-01-08T07:21:34.833Z,6.33
2019-01-08T07:24:02.350Z,6.50
2019-01-08T07:26:30.139Z,8.43
2019-01-08T07:28:57.920Z,7.60
2019-01-08T07:31:25.485Z,6.50
2019-01-08T07:33:53.145Z,7.10
2019-01-08T07:36:20.738Z,5.67
2019-01-08T07:38:48.973Z,8.30
2019-01-08T07:41:16.966Z,9.00
2019-01-08T07:43:44.821Z,8.50
2019-01-08T07:46:12.402Z,8.30
2019-01-08T07:48:40.251Z,7.90
2019-01-08T07:51:07.749Z,8.50
2019-01-08T07:53:35.545Z,7.47
2019-01-08T07:56:03.923Z,8.00
2019-01-08T07:58:31.458Z,8.90
2019-01-08T08:00:58.963Z,7.90
2019-01-08T08:03:26.942Z,9.90
2019-01-08T08:05:54.751Z,8.40
2019-01-08T08:08:22.866Z,8.20
2019-01-08T08:10:51.103Z,12.50
2019-01-08T08:13:18.622Z,12.30
2019-01-08T08:15:46.792Z,13.40
2019-01-08T08:18:15.403Z,12.07
2019-01-08T08:20:43.059Z,12.20
2019-01-08T08:23:10.855Z,8.80
2019-01-08T08:25:40.790Z,7.23
2019-01-08T08:28:08.298Z,7.67
2019-01-08T08:30:35.904Z,7.60
2019-01-08T08:33:03.487Z,8.43
2019-01-08T08:35:31.732Z,8.17
2019-01-08T08:38:00.092Z,8.07
2019-01-08T08:40:28.036Z,7.77
2019-01-08T08:42:55.914Z,8.53
2019-01-08T08:45:23.511Z,9.83
2019-01-08T08:47:51.361Z,7.27
2019-01-08T08:50:19.023Z,7.10
2019-01-08T08:52:47.191Z,9.10
2019-01-08T08:55:15.226Z,7.50
2019-01-08T08:57:43.150Z,6.60
2019-01-08T09:00:11.115Z,5.73
2019-01-08T09:02:38.695Z,6.30
2019-01-08T09:05:06.644Z,5.00
2019-01-08T09:07:34.247Z,5.07
2019-01-08T09:10:02.155Z,3.83
2019-01-08T09:12:30.718Z,3.93
2019-01-08T09:14:58.641Z,3.03
2019-01-08T09:17:26.802Z,2.40
2019-01-08T09:19:54.649Z,3.03
2019-01-08T09:22:22.510Z,2.47
2019-01-08T09:24:52.186Z,2.60
2019-01-08T09:27:20.131Z,3.20
2019-01-08T09:29:48.072Z,2.63
2019-01-08T09:32:15.608Z,2.57
2019-01-08T09:34:43.514Z,2.37
2019-01-08T09:37:11.018Z,3.37
2019-01-08T09:39:39.378Z,3.07
2019-01-08T09:42:07.231Z,2.40
2019-01-08T09:44:35.046Z,2.80
2019-01-08T09:47:02.937Z,2.73
2019-01-08T09:49:31.073Z,3.23
2019-01-08T09:51:58.979Z,2.33
2019-01-08T09:54:26.535Z,2.40
2019-01-08T09:56:54.036Z,2.77
2019-01-08T09:59:21.507Z,2.83
2019-01-08T10:01:50.238Z,3.20
2019-01-08T10:04:18.094Z,3.00
2019-01-08T10:06:46.048Z,2.80
2019-01-08T10:09:13.945Z,2.60
2019-01-08T10:11:41.878Z,2.50
2019-01-08T10:14:10.106Z,3.40
2019-01-08T10:16:38.151Z,2.30
2019-01-08T10:19:06.734Z,2.43
2019-01-08T10:21:34.682Z,3.97
2019-01-08T10:24:02.248Z,3.17
2019-01-08T10:26:29.865Z,2.67
2019-01-08T10:28:57.918Z,2.90
2019-01-08T10:31:32.309Z,3.17
2019-01-08T10:33:55.291Z,2.60
2019-01-08T10:36:22.805Z,2.87
2019-01-08T10:38:50.719Z,3.50
2019-01-08T10:41:18.296Z,2.37
2019-01-08T10:43:46.098Z,2.60
2019-01-08T10:46:13.709Z,3.50
2019-01-08T10:48:41.549Z,3.10
2019-01-08T10:51:09.775Z,4.00
2019-01-08T10:53:37.726Z,4.50
2019-01-08T10:56:06.182Z,2.60
2019-01-08T10:58:33.743Z,3.70
2019-01-08T11:01:01.502Z,3.23
2019-01-08T11:03:29.434Z,2.83
2019-01-08T11:05:56.950Z,2.50
2019-01-08T11:08:24.810Z,2.30
2019-01-08T11:10:52.738Z,3.30
2019-01-08T11:13:21.300Z,3.00
2019-01-08T11:15:49.477Z,1.70
2019-01-08T11:18:18.257Z,3.07
2019-01-08T11:20:46.274Z,2.47
2019-01-08T11:23:13.834Z,2.40
2019-01-08T11:25:41.382Z,2.23
2019-01-08T11:28:09.764Z,2.30
2019-01-08T11:30:37.396Z,2.87
2019-01-08T11:33:05.190Z,2.27
2019-01-08T11:35:33.407Z,2.33
2019-01-08T11:38:01.610Z,2.37
2019-01-08T11:40:30.221Z,1.93
2019-01-08T11:42:58.870Z,2.33
2019-01-08T11:45:27.430Z,2.57
2019-01-08T11:48:03.614Z,3.03
2019-01-08T11:50:25.593Z,3.63
2019-01-08T11:53:08.908Z,3.30
2019-01-08T11:55:36.690Z,3.03
2019-01-08T11:58:04.634Z,2.90
2019-01-08T12:00:32.238Z,2.53
2019-01-08T12:02:59.734Z,2.93
2019-01-08T12:05:28.013Z,2.97
2019-01-08T12:07:55.564Z,2.97
2019-01-08T12:10:23.160Z,3.00
2019-01-08T12:12:51.358Z,3.27
2019-01-08T12:15:19.286Z,3.77
2019-01-08T12:17:47.795Z,2.80
2019-01-08T12:20:15.676Z,2.00
2019-01-08T12:22:43.621Z,2.37
2019-01-08T12:25:11.193Z,2.20
2019-01-08T12:27:39.154Z,2.33
2019-01-08T12:30:08.455Z,2.77
2019-01-08T12:32:36.239Z,2.33
2019-01-08T12:35:03.923Z,1.70
2019-01-08T12:37:31.503Z,2.70
2019-01-08T12:39:59.266Z,2.20
2019-01-08T12:42:27.022Z,2.50
2019-01-08T12:44:54.594Z,2.07
2019-01-08T12:47:22.474Z,2.67
2019-01-08T12:49:50.635Z,1.80
2019-01-08T12:52:18.710Z,1.83
2019-01-08T12:54:47.287Z,1.97
2019-01-08T12:57:14.908Z,2.20
2019-01-08T12:59:43.254Z,2.97
2019-01-08T13:02:14.887Z,2.60
2019-01-08T13:04:40.840Z,1.70
2019-01-08T13:07:08.440Z,2.40
2019-01-08T13:09:36.343Z,2.43
2019-01-08T13:12:03.858Z,4.87
2019-01-08T13:14:32.375Z,4.50
2019-01-08T13:17:00.360Z,3.50
2019-01-08T13:19:27.954Z,10.03
2019-01-08T13:21:56.164Z,4.07
2019-01-08T13:24:24.115Z,3.10
2019-01-08T13:26:52.035Z,4.57
2019-01-08T13:29:19.743Z,3.90
2019-01-08T13:31:48.016Z,3.40
2019-01-08T13:34:15.642Z,3.93
2019-01-08T13:36:43.297Z,2.40
2019-01-08T13:39:11.115Z,2.13
2019-01-08T13:41:38.643Z,2.77
2019-01-08T13:44:06.567Z,3.87
2019-01-08T13:46:34.152Z,2.70
2019-01-08T13:49:02.023Z,2.40
2019-01-08T13:51:29.926Z,1.93
2019-01-08T13:53:57.914Z,2.20
2019-01-08T13:56:25.492Z,2.07
2019-01-08T13:58:53.323Z,2.20
2019-01-08T14:01:21.219Z,2.80
2019-01-08T14:03:49.011Z,2.60
2019-01-08T14:06:16.922Z,2.77
2019-01-08T14:08:44.508Z,1.70
2019-01-08T14:11:12.689Z,2.03
2019-01-08T14:13:40.955Z,2.30
2019-01-08T14:16:08.830Z,1.93
2019-01-08T14:18:36.695Z,2.53
2019-01-08T14:21:04.182Z,1.70
2019-01-08T14:23:32.454Z,1.83
2019-01-08T14:26:00.258Z,1.80
2019-01-08T14:28:28.802Z,1.40
2019-01-08T14:30:56.890Z,2.40
2019-01-08T14:33:25.222Z,1.90
2019-01-08T14:35:52.940Z,1.90
2019-01-08T14:38:20.786Z,1.90
2019-01-08T14:40:48.956Z,2.10
2019-01-08T14:43:16.610Z,1.60
2019-01-08T14:45:44.483Z,2.83
2019-01-08T14:48:12.762Z,1.63
2019-01-08T14:50:40.499Z,1.97
2019-01-08T14:53:08.162Z,2.80
2019-01-08T14:55:36.186Z,1.70
2019-01-08T14:58:03.705Z,2.60
2019-01-08T15:00:31.317Z,2.53
2019-01-08T15:02:59.106Z,2.80
2019-01-08T15:05:26.703Z,1.70
2019-01-08T15:07:54.260Z,1.60
2019-01-08T15:10:21.909Z,2.53
2019-01-08T15:12:49.766Z,2.13
2019-01-08T15:15:17.583Z,3.10
2019-01-08T15:17:45.187Z,2.40
2019-01-08T15:20:12.772Z,1.87
2019-01-08T15:22:40.958Z,2.33
2019-01-08T15:25:08.835Z,2.10
2019-01-08T15:27:37.223Z,3.13
2019-01-08T15:30:07.207Z,2.33
2019-01-08T15:32:35.308Z,2.67
2019-01-08T15:35:03.462Z,3.57
2019-01-08T15:37:31.546Z,2.40
2019-01-08T15:39:59.108Z,4.70
2019-01-08T15:42:26.928Z,3.07
2019-01-08T15:44:54.877Z,2.07
2019-01-08T15:47:22.721Z,2.60
2019-01-08T15:49:50.278Z,3.13
2019-01-08T15:52:18.291Z,2.67
2019-01-08T15:54:45.806Z,2.13
2019-01-08T15:57:13.571Z,2.87
2019-01-08T15:59:41.838Z,2.73
2019-01-08T16:02:10.242Z,2.07
2019-01-08T16:04:38.131Z,2.20
2019-01-08T16:07:05.651Z,2.53
2019-01-08T16:09:33.151Z,2.23
2019-01-08T16:12:01.337Z,2.10
2019-01-08T16:14:29.728Z,1.93
2019-01-08T16:16:57.260Z,2.13
2019-01-08T16:19:24.826Z,3.60
2019-01-08T16:21:52.686Z,2.83
2019-01-08T16:24:20.178Z,3.50
2019-01-08T16:26:48.139Z,3.20
2019-01-08T16:29:15.667Z,4.00
2019-01-08T16:31:43.973Z,5.23
2019-01-08T16:34:11.865Z,2.93
2019-01-08T16:36:39.672Z,2.80
2019-01-08T16:39:07.807Z,3.20
2019-01-08T16:41:36.272Z,2.90
2019-01-08T16:44:04.076Z,5.30
2019-01-08T16:46:32.251Z,3.30
2019-01-08T19:52:29.127Z,2.40
2019-01-08T19:54:56.798Z,3.93
2019-01-08T19:57:24.403Z,2.97
2019-01-08T19:59:52.550Z,2.70
2019-01-08T20:02:20.458Z,2.37
2019-01-08T20:04:48.390Z,2.70
2019-01-08T20:07:16.003Z,2.07
2019-01-08T20:09:43.578Z,1.80
2019-01-08T20:12:11.162Z,3.63
2019-01-08T20:14:38.776Z,2.43
2019-01-08T20:17:06.250Z,2.07
2019-01-08T20:19:33.756Z,2.20
2019-01-08T20:22:01.648Z,2.90
2019-01-08T20:24:29.602Z,2.97
2019-01-08T20:26:57.413Z,2.13
2019-01-08T20:29:25.194Z,2.50
2019-01-08T20:31:52.971Z,2.33
2019-01-08T20:34:26.471Z,2.20
2019-01-08T20:36:50.344Z,2.23
2019-01-08T20:39:18.663Z,2.20
2019-01-08T20:41:46.547Z,1.93
2019-01-08T20:44:14.162Z,3.63
2019-01-08T20:46:41.654Z,3.50
2019-01-08T20:49:09.602Z,1.53
2019-01-08T20:51:37.082Z,2.00
2019-01-08T20:54:05.255Z,1.70
2019-01-08T20:56:33.184Z,2.03
2019-01-08T20:59:01.096Z,1.77
2019-01-08T21:01:29.316Z,1.90
2019-01-08T21:03:56.946Z,2.07
2019-01-08T21:06:24.794Z,2.33
2019-01-08T21:08:52.322Z,2.27
2019-01-08T21:11:20.126Z,1.87
2019-01-08T21:13:48.022Z,1.90
2019-01-08T21:16:15.526Z,1.80
2019-01-08T21:18:43.596Z,2.70
2019-01-08T21:21:11.446Z,2.80
2019-01-08T21:23:39.546Z,2.47
2019-01-08T21:26:07.050Z,1.90
2019-01-08T21:28:34.740Z,2.10
2019-01-08T21:31:02.380Z,2.30
2019-01-08T21:33:29.941Z,2.03
2019-01-08T21:35:58.150Z,2.17
2019-01-08T21:38:25.994Z,1.87
2019-01-08T21:40:53.904Z,1.97
2019-01-08T21:43:21.495Z,1.93
2019-01-08T21:45:49.316Z,2.10
2019-01-08T21:48:16.936Z,1.57
2019-01-08T21:50:44.598Z,2.50
2019-01-08T21:53:12.102Z,4.00
2019-01-08T21:55:39.743Z,2.53
2019-01-08T21:58:07.483Z,2.50
2019-01-08T22:00:35.306Z,2.00
2019-01-08T22:03:03.422Z,1.70
2019-01-08T22:05:31.259Z,2.53
2019-01-08T22:08:00.603Z,2.03
2019-01-08T22:10:28.294Z,2.50
2019-01-08T22:12:55.962Z,2.10
2019-01-08T22:15:23.830Z,2.10
2019-01-08T22:17:51.306Z,2.07
2019-01-08T22:20:18.928Z,2.63
2019-01-08T22:22:52.626Z,2.03
2019-01-08T22:25:15.918Z,2.47
2019-01-08T22:27:43.984Z,2.33
2019-01-08T22:30:12.123Z,2.33
2019-01-08T22:32:39.628Z,2.43
2019-01-08T22:35:07.759Z,1.87
2019-01-08T22:37:35.320Z,3.60
2019-01-08T22:40:02.922Z,2.20
2019-01-08T22:42:30.799Z,2.50
2019-01-08T22:44:58.430Z,1.80
2019-01-08T22:47:26.209Z,2.17
2019-01-08T22:49:54.086Z,2.37
2019-01-08T22:52:21.698Z,2.23
2019-01-08T22:54:49.628Z,3.13
2019-01-08T22:57:17.384Z,2.57
2019-01-08T22:59:44.898Z,2.10
2019-01-08T23:02:13.691Z,1.90
2019-01-08T23:04:41.947Z,2.10
2019-01-08T23:07:10.074Z,1.80
2019-01-08T23:09:37.987Z,2.23
2019-01-08T23:12:05.492Z,2.47
2019-01-08T23:14:32.997Z,2.73
2019-01-08T23:17:00.467Z,2.40
2019-01-08T23:19:28.714Z,2.63
2019-01-08T23:21:56.435Z,1.43
2019-01-08T23:24:24.257Z,1.73
2019-01-08T23:26:52.030Z,2.40
2019-01-08T23:29:19.769Z,1.80
2019-01-08T23:31:47.506Z,3.50
2019-01-08T23:34:14.962Z,2.37
2019-01-08T23:36:42.454Z,2.20
2019-01-08T23:39:10.944Z,1.80
2019-01-08T23:41:38.740Z,2.30
2019-01-08T23:44:06.936Z,1.70
2019-01-08T23:46:34.532Z,2.17
2019-01-08T23:49:02.000Z,2.27
2019-01-08T23:51:29.778Z,2.07
2019-01-08T23:53:58.224Z,1.50
2019-01-08T23:56:26.823Z,1.83
2019-01-08T23:58:54.677Z,2.00
